KCIC

Chico Municipal Airport

Chico, California, USA
METAR KCIC 171549Z 00000KT 10SM SKC 24/07 A3005
Observed Flight Rules
Aug-17 @ 15:49 UTC (an hour ago) Visual Flight Rules
Visibility Clouds
10 miles
  • Clear skies
Temperatures Readings
Current 24°C / 75°F
Dewpoint 7°C / 45°F
Humidity 34%
Altimeter 30.05" Hg
Pressure 1018 hPa
Elevation 73
METAR KCIC 171549Z 00000KT 10SM SKC 24/07 A3005
Observed Flight Rules
Aug-17 @ 15:49 UTC
(an hour ago)
VFR
Clouds
  • Clear skies
Temperature Dewpoint
24°C / 75°F 7°C / 45°F
Humidity Altimeter Pressure
34% 30.05" Hg 1018 hPa